Time;durP1;ratioP1;P1;durP2;ratioP2;P2;SDS_P1;SDS_P2;PMS_P1;PMS_P2;Temp;Humidity;BMP_temperature;BMP_pressure;BME280_temperature;BME280_humidity;BME280_pressure;Samples;Min_cycle;Max_cycle;Signal;HPM_P1;HPM_P2
2023/09/05 00:02:21;;;;;;;2.13;2.03;;;21.10;67.50;;;;;;5053987;28;20548;-72
2023/09/05 00:04:47;;;;;;;2.40;2.20;;;21.10;67.50;;;;;;5054939;28;20648;-71
2023/09/05 00:07:13;;;;;;;2.45;2.25;;;21.10;67.50;;;;;;5054464;28;20221;-72
2023/09/05 00:09:38;;;;;;;2.20;2.03;;;21.10;67.50;;;;;;5053984;28;20186;-69
2023/09/05 00:12:05;;;;;;;1.73;1.63;;;21.10;67.50;;;;;;5054363;28;20214;-69
2023/09/05 00:14:30;;;;;;;2.30;2.20;;;21.10;67.50;;;;;;5053648;28;20186;-68
2023/09/05 00:16:56;;;;;;;1.90;1.80;;;21.10;67.50;;;;;;5054830;28;20171;-68
2023/09/05 00:19:21;;;;;;;2.30;2.20;;;21.10;67.50;;;;;;5054470;28;20664;-68
2023/09/05 00:21:47;;;;;;;2.15;2.03;;;21.10;67.40;;;;;;5053915;28;20554;-68
2023/09/05 00:24:25;;;;;;;2.00;1.88;;;21.10;67.40;;;;;;5053742;28;20176;-69
2023/09/05 00:26:51;;;;;;;2.53;2.10;;;21.10;67.40;;;;;;5054396;28;20179;-68
2023/09/05 00:29:20;;;;;;;1.80;1.70;;;21.10;67.40;;;;;;5053547;28;21006;-69
2023/09/05 00:31:48;;;;;;;2.22;2.03;;;21.10;67.40;;;;;;5054413;28;20253;-69
2023/09/05 00:34:14;;;;;;;1.98;1.88;;;21.10;67.40;;;;;;5054163;28;20194;-70
2023/09/05 00:36:40;;;;;;;2.15;2.05;;;21.10;67.40;;;;;;5053499;28;20662;-70
2023/09/05 00:39:06;;;;;;;2.08;1.98;;;21.10;67.50;;;;;;5053946;28;20664;-71
2023/09/05 00:41:32;;;;;;;2.10;2.00;;;21.10;67.40;;;;;;5053991;28;20175;-69
2023/09/05 00:43:59;;;;;;;2.15;2.05;;;21.10;67.40;;;;;;5053268;28;20205;-69
2023/09/05 00:46:25;;;;;;;2.65;2.45;;;21.00;67.40;;;;;;5053966;28;20644;-70
2023/09/05 00:48:52;;;;;;;2.40;2.20;;;21.10;67.40;;;;;;5054074;28;20676;-68
2023/09/05 00:51:19;;;;;;;2.45;2.25;;;21.10;67.40;;;;;;5052915;28;20692;-69
2023/09/05 00:53:45;;;;;;;2.10;2.00;;;21.10;67.40;;;;;;5053826;28;20710;-68
2023/09/05 00:56:10;;;;;;;2.30;2.10;;;21.10;67.40;;;;;;5053435;28;20250;-69
2023/09/05 00:58:36;;;;;;;2.30;2.15;;;21.00;68.20;;;;;;5051869;28;20226;-69
2023/09/05 01:01:01;;;;;;;2.35;2.15;;;21.10;67.40;;;;;;5052474;28;20177;-70
2023/09/05 01:03:27;;;;;;;2.30;2.10;;;21.10;67.40;;;;;;5053710;28;20191;-71
2023/09/05 01:05:55;;;;;;;2.30;2.20;;;21.00;67.40;;;;;;5052947;28;20201;-70
2023/09/05 01:08:26;;;;;;;2.13;2.00;;;21.00;67.40;;;;;;5052212;28;20271;-71
2023/09/05 01:11:01;;;;;;;2.35;2.15;;;21.10;67.50;;;;;;5051758;28;20715;-68
2023/09/05 01:13:27;;;;;;;2.38;2.17;;;21.00;67.40;;;;;;5053367;28;20215;-69
2023/09/05 01:15:55;;;;;;;2.08;1.98;;;21.00;67.40;;;;;;5053706;28;20177;-68
2023/09/05 01:18:21;;;;;;;2.10;2.00;;;21.00;67.40;;;;;;5052584;28;20183;-69
2023/09/05 01:21:07;;;;;;;2.60;2.40;;;21.00;67.40;;;;;;5052106;28;20187;-67
2023/09/05 01:23:37;;;;;;;1.95;1.85;;;21.00;67.40;;;;;;5052317;28;20732;-69
2023/09/05 01:26:03;;;;;;;2.22;2.03;;;21.00;67.40;;;;;;5051444;28;20560;-68
2023/09/05 01:28:28;;;;;;;2.17;2.03;;;21.00;67.40;;;;;;5052141;28;20634;-69
2023/09/05 01:30:54;;;;;;;2.22;1.75;;;21.00;68.20;;;;;;5052312;28;20201;-69
2023/09/05 01:33:19;;;;;;;2.42;2.22;;;21.00;67.40;;;;;;5052058;28;20742;-71
2023/09/05 01:35:45;;;;;;;1.95;1.85;;;21.00;68.20;;;;;;5052274;28;20175;-69
2023/09/05 01:38:11;;;;;;;2.20;2.10;;;21.00;67.40;;;;;;5052965;28;20660;-71
2023/09/05 01:40:36;;;;;;;2.03;1.92;;;21.00;67.40;;;;;;5051101;28;20171;-68
2023/09/05 01:43:02;;;;;;;2.55;2.35;;;21.00;67.40;;;;;;5051749;28;20270;-69
2023/09/05 01:45:27;;;;;;;2.42;2.22;;;21.00;67.40;;;;;;5052851;28;20641;-70
2023/09/05 01:47:53;;;;;;;2.20;2.00;;;21.00;67.40;;;;;;5052145;28;20182;-69
2023/09/05 01:50:19;;;;;;;2.47;2.28;;;21.00;67.40;;;;;;5052465;28;20630;-69
2023/09/05 01:52:45;;;;;;;2.25;2.08;;;21.00;67.30;;;;;;5053003;28;20225;-68
2023/09/05 01:55:10;;;;;;;2.30;2.10;;;21.00;67.30;;;;;;5051819;28;20171;-69
2023/09/05 01:57:36;;;;;;;2.85;2.20;;;21.00;67.40;;;;;;5052816;28;20243;-68
2023/09/05 02:00:02;;;;;;;2.30;2.10;;;21.00;67.40;;;;;;5051740;28;20309;-70
2023/09/05 02:02:27;;;;;;;2.10;1.90;;;21.00;67.40;;;;;;5052675;28;20665;-71
2023/09/05 02:04:53;;;;;;;2.50;2.30;;;21.00;67.40;;;;;;5052582;28;20171;-70
2023/09/05 02:07:18;;;;;;;2.00;1.90;;;21.00;67.40;;;;;;5051821;28;20305;-71
2023/09/05 02:09:44;;;;;;;1.80;1.70;;;21.00;67.40;;;;;;5052846;28;20253;-68
2023/09/05 02:12:09;;;;;;;2.40;2.20;;;21.00;67.40;;;;;;5052353;28;20803;-69
2023/09/05 02:14:36;;;;;;;2.20;2.00;;;20.90;68.20;;;;;;5052079;28;20647;-68
2023/09/05 02:17:02;;;;;;;2.35;2.25;;;21.00;67.40;;;;;;5051978;28;20204;-68
2023/09/05 02:19:28;;;;;;;2.50;2.30;;;21.00;67.40;;;;;;5052421;28;20211;-69
2023/09/05 02:21:55;;;;;;;2.13;2.03;;;21.00;67.40;;;;;;5051891;28;20182;-69
2023/09/05 02:24:20;;;;;;;2.05;1.95;;;21.00;67.40;;;;;;5052418;28;20170;-69
2023/09/05 02:26:46;;;;;;;2.05;1.92;;;21.00;67.40;;;;;;5052545;28;20265;-68
2023/09/05 02:29:11;;;;;;;2.33;2.13;;;21.00;67.40;;;;;;5051530;28;20175;-70
2023/09/05 02:31:37;;;;;;;2.38;2.10;;;20.90;67.30;;;;;;5052383;28;20199;-70
2023/09/05 02:34:02;;;;;;;2.42;2.25;;;20.90;67.30;;;;;;5052226;28;20198;-71
2023/09/05 02:36:30;;;;;;;2.38;2.08;;;21.00;67.30;;;;;;5051871;28;20674;-72
2023/09/05 02:38:56;;;;;;;1.83;1.73;;;20.90;68.10;;;;;;5052562;28;20175;-70
2023/09/05 02:41:22;;;;;;;3.10;2.30;;;21.00;67.30;;;;;;5052119;28;20174;-70
2023/09/05 02:43:49;;;;;;;1.92;1.83;;;20.90;68.20;;;;;;5051819;28;20180;-68
2023/09/05 02:46:14;;;;;;;2.30;2.10;;;21.00;67.40;;;;;;5052100;28;20218;-70
2023/09/05 02:48:40;;;;;;;2.00;1.90;;;21.00;68.20;;;;;;5055942;28;20199;-69
2023/09/05 02:51:10;;;;;;;2.60;2.40;;;20.90;67.20;;;;;;5055283;28;20643;-70
2023/09/05 02:53:36;;;;;;;2.60;2.40;;;21.00;67.40;;;;;;5056284;28;20332;-69
2023/09/05 02:56:02;;;;;;;2.63;2.22;;;20.90;67.30;;;;;;5055980;28;20188;-69
2023/09/05 02:58:28;;;;;;;2.33;2.13;;;20.90;67.20;;;;;;5055201;28;20356;-69
2023/09/05 03:01:10;;;;;;;2.08;1.98;;;20.90;67.30;;;;;;5055885;28;20179;-69
2023/09/05 03:03:35;;;;;;;2.28;2.05;;;20.90;67.30;;;;;;5055289;28;20179;-70
2023/09/05 03:06:11;;;;;;;2.20;2.10;;;20.90;67.20;;;;;;5055818;28;20660;-71
2023/09/05 03:08:37;;;;;;;2.38;2.17;;;20.90;67.20;;;;;;5056001;28;20179;-69
2023/09/05 03:11:02;;;;;;;2.50;2.30;;;20.90;67.30;;;;;;5055104;28;20178;-71
2023/09/05 03:13:28;;;;;;;2.00;1.90;;;20.90;67.30;;;;;;5055587;28;20226;-69
2023/09/05 03:15:53;;;;;;;2.30;2.10;;;20.90;67.30;;;;;;5055895;28;20254;-68
2023/09/05 03:18:19;;;;;;;2.47;2.30;;;20.90;67.20;;;;;;5054574;28;20175;-69
2023/09/05 03:20:45;;;;;;;2.20;2.00;;;20.90;67.30;;;;;;5055655;28;20171;-68
2023/09/05 03:23:11;;;;;;;2.20;2.10;;;20.90;67.30;;;;;;5055522;28;20179;-69
2023/09/05 03:25:37;;;;;;;1.95;1.85;;;20.90;67.30;;;;;;5055146;28;20182;-69
2023/09/05 03:28:03;;;;;;;2.38;2.05;;;20.90;67.30;;;;;;5055318;28;20179;-69
2023/09/05 03:30:28;;;;;;;1.95;1.85;;;20.90;67.20;;;;;;5055471;28;20175;-69
2023/09/05 03:32:54;;;;;;;2.40;2.20;;;20.90;67.30;;;;;;5054847;28;20297;-71
2023/09/05 03:35:20;;;;;;;2.00;1.90;;;20.90;68.20;;;;;;5037594;28;20177;-72
2023/09/05 03:37:45;;;;;;;2.40;2.20;;;20.90;67.30;;;;;;5055227;28;20182;-70
2023/09/05 03:40:12;;;;;;;2.53;2.08;;;20.90;67.30;;;;;;5054435;28;20233;-70
2023/09/05 03:42:38;;;;;;;1.90;1.80;;;20.90;67.30;;;;;;5055026;28;20175;-68
2023/09/05 03:45:04;;;;;;;2.03;1.92;;;20.90;67.30;;;;;;5055213;28;20194;-70
2023/09/05 03:47:30;;;;;;;2.15;2.03;;;20.90;67.30;;;;;;5054565;28;20249;-70
2023/09/05 03:49:55;;;;;;;2.20;2.00;;;20.90;67.20;;;;;;5055044;28;20546;-68
2023/09/05 03:52:21;;;;;;;2.50;2.30;;;20.90;68.10;;;;;;5054718;28;20211;-68
2023/09/05 03:54:46;;;;;;;2.30;2.10;;;20.90;67.30;;;;;;5054498;28;20177;-68
2023/09/05 03:57:12;;;;;;;1.80;1.70;;;20.90;67.30;;;;;;5054675;28;20179;-69
2023/09/05 03:59:38;;;;;;;2.00;1.90;;;20.90;67.30;;;;;;5053156;28;20215;-68
2023/09/05 04:02:03;;;;;;;2.10;2.00;;;20.90;67.30;;;;;;5054604;28;20167;-71
2023/09/05 04:04:29;;;;;;;2.10;2.00;;;20.90;67.30;;;;;;5054982;28;20269;-71
2023/09/05 04:06:54;;;;;;;2.00;1.90;;;20.90;67.30;;;;;;5054133;28;20171;-69
2023/09/05 04:09:20;;;;;;;1.92;1.83;;;20.80;67.20;;;;;;5054468;28;20240;-69
2023/09/05 04:11:45;;;;;;;2.00;1.90;;;20.80;67.30;;;;;;5054544;28;20293;-68
2023/09/05 04:14:11;;;;;;;2.08;1.90;;;20.80;67.30;;;;;;5053896;28;20179;-68
2023/09/05 04:16:36;;;;;;;2.40;2.20;;;20.90;67.30;;;;;;5054629;28;20175;-68
2023/09/05 04:19:02;;;;;;;2.08;1.98;;;20.90;67.30;;;;;;5054568;28;20175;-69
2023/09/05 04:21:27;;;;;;;1.95;1.85;;;20.80;68.10;;;;;;5053689;28;20171;-69
2023/09/05 04:23:53;;;;;;;2.70;2.00;;;20.80;68.10;;;;;;5054583;28;20230;-68
2023/09/05 04:26:19;;;;;;;2.33;2.13;;;20.80;67.20;;;;;;5054129;28;20540;-68
2023/09/05 04:28:44;;;;;;;2.10;1.90;;;20.80;67.20;;;;;;5053638;28;20205;-68
2023/09/05 04:31:10;;;;;;;2.15;1.75;;;20.80;67.20;;;;;;5054256;28;20190;-69
2023/09/05 04:33:40;;;;;;;1.90;1.80;;;20.80;67.20;;;;;;5054351;28;20264;-69
2023/09/05 04:36:08;;;;;;;2.33;1.70;;;20.80;67.30;;;;;;5053388;28;20197;-71
2023/09/05 04:38:34;;;;;;;2.10;1.95;;;20.80;67.20;;;;;;5054305;28;20660;-69
2023/09/05 04:41:01;;;;;;;2.10;2.00;;;20.80;68.10;;;;;;5053701;28;20175;-70
2023/09/05 04:43:26;;;;;;;2.08;1.98;;;20.80;67.30;;;;;;5053496;28;20205;-70
2023/09/05 04:45:54;;;;;;;2.25;2.05;;;20.80;67.30;;;;;;5054303;28;20194;-70
2023/09/05 04:48:19;;;;;;;2.72;2.50;;;20.80;68.10;;;;;;5053750;28;20179;-70
2023/09/05 04:50:45;;;;;;;2.38;2.17;;;20.80;67.30;;;;;;5053267;28;20174;-70
2023/09/05 04:53:10;;;;;;;2.55;2.03;;;20.80;67.20;;;;;;5053500;28;20222;-70
2023/09/05 04:55:36;;;;;;;2.20;2.00;;;20.80;67.20;;;;;;5053920;28;20181;-70
2023/09/05 04:58:01;;;;;;;2.10;2.00;;;20.80;67.20;;;;;;5052885;28;20622;-68
2023/09/05 05:00:31;;;;;;;2.13;1.92;;;20.80;67.30;;;;;;5054036;28;20187;-69
2023/09/05 05:02:57;;;;;;;2.15;1.95;;;20.80;67.30;;;;;;5053253;28;20194;-69
2023/09/05 05:05:23;;;;;;;2.10;2.00;;;20.80;67.30;;;;;;5053498;28;20179;-71
2023/09/05 05:07:48;;;;;;;2.00;1.90;;;20.80;67.30;;;;;;5054193;28;20187;-70
2023/09/05 05:10:14;;;;;;;2.00;1.90;;;20.80;67.30;;;;;;5052606;28;20313;-71
2023/09/05 05:12:40;;;;;;;3.13;2.35;;;20.80;67.30;;;;;;5053597;28;20206;-67
2023/09/05 05:15:07;;;;;;;2.03;1.92;;;20.80;67.30;;;;;;5053561;28;20171;-68
2023/09/05 05:17:33;;;;;;;2.08;1.98;;;20.80;67.20;;;;;;5052797;28;20182;-68
2023/09/05 05:19:59;;;;;;;2.10;2.00;;;20.80;67.30;;;;;;5053266;28;20175;-68
2023/09/05 05:22:25;;;;;;;2.40;2.20;;;20.80;67.30;;;;;;5053244;28;20241;-69
2023/09/05 05:24:51;;;;;;;2.00;1.90;;;20.80;67.30;;;;;;5052575;28;20275;-68
2023/09/05 05:27:17;;;;;;;2.17;2.08;;;20.80;68.10;;;;;;5053215;28;20209;-69
2023/09/05 05:29:43;;;;;;;2.38;2.17;;;20.80;68.10;;;;;;5053308;28;20795;-69
2023/09/05 05:32:08;;;;;;;1.88;1.77;;;20.80;67.20;;;;;;5052382;28;20210;-71
2023/09/05 05:34:34;;;;;;;2.25;2.05;;;20.80;67.20;;;;;;5053225;28;20565;-71
2023/09/05 05:37:00;;;;;;;2.35;2.15;;;20.80;67.20;;;;;;5052964;28;20540;-72
2023/09/05 05:39:26;;;;;;;2.45;2.25;;;20.80;67.20;;;;;;5052251;28;20211;-71
2023/09/05 05:41:51;;;;;;;2.45;2.25;;;20.80;67.20;;;;;;5053001;28;20207;-69
2023/09/05 05:44:17;;;;;;;2.20;2.00;;;20.80;67.20;;;;;;5052648;28;20201;-71
2023/09/05 05:46:43;;;;;;;2.10;2.00;;;20.80;68.00;;;;;;5052278;28;20640;-69
2023/09/05 05:49:09;;;;;;;2.60;2.40;;;20.80;67.20;;;;;;5052627;28;20171;-70
2023/09/05 05:51:35;;;;;;;2.10;1.95;;;20.80;67.10;;;;;;5052720;28;20175;-71
2023/09/05 05:54:01;;;;;;;2.10;1.92;;;20.80;67.20;;;;;;5050679;28;20601;-69
2023/09/05 05:56:26;;;;;;;2.28;2.13;;;20.80;67.10;;;;;;5052621;28;20634;-70
2023/09/05 05:58:52;;;;;;;2.20;2.00;;;20.80;67.10;;;;;;5052774;28;20245;-68
2023/09/05 06:01:21;;;;;;;2.35;2.05;;;20.80;67.10;;;;;;5051884;28;20677;-72
2023/09/05 06:03:47;;;;;;;2.22;2.05;;;20.80;67.10;;;;;;5052712;28;20183;-73
2023/09/05 06:06:13;;;;;;;2.10;1.90;;;20.90;67.20;;;;;;5051619;28;20199;-72
2023/09/05 06:08:39;;;;;;;2.13;2.03;;;20.80;67.00;;;;;;5052502;28;20217;-70
2023/09/05 06:11:04;;;;;;;2.05;1.95;;;20.90;67.10;;;;;;5051504;28;20182;-72
2023/09/05 06:13:30;;;;;;;2.38;2.15;;;20.80;67.00;;;;;;5051520;28;20246;-70
2023/09/05 06:15:56;;;;;;;2.17;2.08;;;20.90;67.00;;;;;;5052683;28;20171;-69
2023/09/05 06:18:22;;;;;;;1.98;1.88;;;20.90;67.00;;;;;;5051007;28;20670;-70
2023/09/05 06:20:47;;;;;;;1.70;1.60;;;20.90;66.90;;;;;;5051856;28;20183;-69
2023/09/05 06:23:13;;;;;;;2.30;2.10;;;20.90;66.90;;;;;;5055165;28;20221;-70
2023/09/05 06:25:39;;;;;;;2.50;2.30;;;20.90;66.90;;;;;;5056869;28;20217;-70
2023/09/05 06:28:05;;;;;;;2.17;1.95;;;20.90;66.90;;;;;;5055912;28;20182;-70
2023/09/05 06:30:31;;;;;;;2.25;2.05;;;20.90;66.90;;;;;;5056623;28;20179;-71
2023/09/05 06:32:56;;;;;;;1.83;1.73;;;20.90;66.80;;;;;;5056603;28;20207;-72
2023/09/05 06:35:22;;;;;;;2.10;2.00;;;20.90;66.80;;;;;;5055563;28;20175;-73
2023/09/05 06:37:51;;;;;;;1.90;1.80;;;20.90;66.70;;;;;;5056425;28;20186;-71
2023/09/05 06:40:18;;;;;;;2.22;2.03;;;21.00;66.70;;;;;;5056289;28;20171;-71
2023/09/05 06:42:44;;;;;;;1.80;1.70;;;21.00;66.70;;;;;;5055819;28;20183;-69
2023/09/05 06:45:10;;;;;;;2.45;1.80;;;21.00;66.70;;;;;;5056179;28;20643;-71
2023/09/05 06:47:36;;;;;;;2.22;2.03;;;21.00;66.60;;;;;;5056317;28;20183;-70
2023/09/05 06:50:04;;;;;;;2.35;2.15;;;21.00;66.60;;;;;;5055295;28;20178;-70
2023/09/05 06:52:30;;;;;;;2.22;2.00;;;21.00;66.60;;;;;;5056346;28;20223;-70
2023/09/05 06:54:56;;;;;;;2.00;1.90;;;21.00;66.50;;;;;;5056160;28;20498;-69
2023/09/05 06:57:22;;;;;;;1.85;1.75;;;21.10;66.50;;;;;;5055274;28;20274;-70
2023/09/05 06:59:50;;;;;;;2.15;1.95;;;21.10;66.50;;;;;;5055899;28;20677;-71
2023/09/05 07:02:15;;;;;;;2.47;2.10;;;21.10;66.50;;;;;;5055568;28;20204;-73
2023/09/05 07:04:41;;;;;;;1.90;1.80;;;21.20;66.50;;;;;;5055468;28;20261;-72
2023/09/05 07:07:08;;;;;;;1.80;1.70;;;21.10;66.40;;;;;;5055741;28;20179;-73
2023/09/05 07:09:34;;;;;;;2.10;1.90;;;21.20;66.40;;;;;;5055344;28;20183;-70
2023/09/05 07:11:59;;;;;;;1.65;1.55;;;21.20;66.40;;;;;;5055438;28;20203;-70
2023/09/05 07:14:25;;;;;;;2.35;2.25;;;21.20;66.30;;;;;;5055827;28;20187;-69
2023/09/05 07:16:50;;;;;;;1.75;1.65;;;21.30;66.50;;;;;;5055280;28;20182;-69
2023/09/05 07:19:17;;;;;;;2.53;1.90;;;21.20;66.40;;;;;;5055369;28;20546;-69
2023/09/05 07:21:42;;;;;;;1.90;1.80;;;21.30;67.30;;;;;;5055893;28;20178;-68
2023/09/05 07:24:11;;;;;;;1.92;1.83;;;21.30;66.40;;;;;;5054833;28;20174;-68
2023/09/05 07:26:38;;;;;;;1.90;1.80;;;21.30;66.40;;;;;;5055643;28;20190;-68
2023/09/05 07:29:10;;;;;;;2.50;1.95;;;21.30;66.30;;;;;;5055519;28;20183;-69
2023/09/05 07:31:39;;;;;;;2.53;2.33;;;21.40;66.40;;;;;;5054738;28;20183;-69
2023/09/05 07:34:05;;;;;;;2.08;1.88;;;21.30;66.30;;;;;;5053902;28;20171;-70
2023/09/05 07:36:31;;;;;;;2.45;2.03;;;21.40;66.30;;;;;;5055577;28;20178;-72
2023/09/05 07:38:58;;;;;;;2.25;2.00;;;21.40;66.30;;;;;;5054967;28;20232;-71
2023/09/05 07:41:24;;;;;;;3.28;1.88;;;21.40;66.30;;;;;;5055674;28;20175;-70
2023/09/05 07:43:49;;;;;;;1.90;1.80;;;21.40;66.30;;;;;;5055316;28;20202;-68
2023/09/05 07:46:15;;;;;;;2.22;2.05;;;21.40;66.30;;;;;;5054118;28;20179;-69
2023/09/05 07:48:40;;;;;;;1.75;1.65;;;21.40;66.30;;;;;;5055082;28;20175;-69
2023/09/05 07:51:07;;;;;;;2.08;1.98;;;21.50;66.30;;;;;;5054885;28;20176;-68
2023/09/05 07:53:36;;;;;;;1.73;1.63;;;21.50;66.30;;;;;;5054524;28;20219;-68
2023/09/05 07:56:03;;;;;;;2.60;2.05;;;21.50;66.30;;;;;;5054914;28;20175;-69
2023/09/05 07:58:28;;;;;;;1.95;1.85;;;21.50;66.30;;;;;;5054692;28;20250;-69
2023/09/05 08:00:54;;;;;;;1.95;1.85;;;21.50;66.30;;;;;;5054165;28;20175;-69
2023/09/05 08:03:20;;;;;;;2.03;1.92;;;21.60;66.40;;;;;;5053605;28;20525;-70
2023/09/05 08:05:46;;;;;;;2.22;2.13;;;21.60;66.40;;;;;;5054365;28;20167;-70
2023/09/05 08:08:13;;;;;;;1.85;1.73;;;21.60;67.20;;;;;;5054579;28;20187;-70
2023/09/05 08:10:39;;;;;;;2.55;1.85;;;21.60;66.40;;;;;;5054959;28;20175;-69
2023/09/05 08:13:04;;;;;;;2.10;1.88;;;21.60;66.40;;;;;;5053829;28;20206;-69
2023/09/05 08:15:30;;;;;;;2.42;1.98;;;21.70;66.50;;;;;;5054569;28;20171;-68
2023/09/05 08:17:55;;;;;;;2.30;2.10;;;21.70;66.50;;;;;;5054568;28;20270;-68
2023/09/05 08:20:21;;;;;;;2.63;1.92;;;21.70;66.50;;;;;;5053640;28;20266;-69
2023/09/05 08:22:48;;;;;;;2.20;2.00;;;21.70;66.50;;;;;;5054520;28;20182;-68
2023/09/05 08:25:15;;;;;;;1.75;1.65;;;21.70;67.30;;;;;;5054412;28;20179;-69
2023/09/05 08:27:45;;;;;;;2.30;2.10;;;21.70;66.50;;;;;;5053878;28;20320;-69
2023/09/05 08:30:11;;;;;;;2.38;2.13;;;21.70;66.50;;;;;;5054025;28;20190;-69
2023/09/05 08:32:40;;;;;;;2.53;2.22;;;21.80;66.50;;;;;;5054158;28;20211;-69
2023/09/05 08:35:11;;;;;;;2.45;1.85;;;21.80;66.50;;;;;;5053423;28;20614;-70
2023/09/05 08:37:37;;;;;;;2.30;2.10;;;21.80;66.50;;;;;;5054390;28;20175;-69
2023/09/05 08:40:06;;;;;;;1.90;1.70;;;21.80;66.50;;;;;;5053948;28;20190;-70
2023/09/05 08:42:32;;;;;;;2.45;2.25;;;21.90;66.60;;;;;;5053322;28;20190;-70
2023/09/05 08:45:00;;;;;;;2.25;1.55;;;21.90;66.60;;;;;;5053707;28;20209;-69
2023/09/05 08:47:26;;;;;;;1.70;1.60;;;21.90;66.50;;;;;;5036167;28;20585;-69
2023/09/05 08:49:53;;;;;;;2.40;2.20;;;21.90;66.50;;;;;;5052038;28;20168;-69
2023/09/05 08:52:19;;;;;;;2.78;2.10;;;21.90;66.50;;;;;;5053636;28;20203;-68
2023/09/05 08:54:45;;;;;;;2.10;1.90;;;22.00;66.70;;;;;;5052771;28;20171;-68
2023/09/05 08:57:13;;;;;;;2.22;2.03;;;22.00;66.60;;;;;;5052771;28;20191;-69
2023/09/05 08:59:40;;;;;;;2.00;1.90;;;21.90;66.50;;;;;;5052602;28;20226;-69
2023/09/05 09:02:06;;;;;;;2.15;1.95;;;22.00;67.40;;;;;;5053049;28;20167;-70
2023/09/05 09:04:32;;;;;;;1.70;1.60;;;22.00;66.60;;;;;;5053744;28;20178;-76
2023/09/05 09:07:00;;;;;;;2.83;2.00;;;22.00;66.60;;;;;;5053793;28;20224;-74
2023/09/05 09:09:36;;;;;;;2.03;1.92;;;22.00;66.40;;;;;;5053006;28;20203;-73
2023/09/05 09:12:02;;;;;;;3.22;2.10;;;22.10;66.40;;;;;;5053533;28;20217;-72
2023/09/05 09:14:27;;;;;;;2.97;1.83;;;22.10;66.40;;;;;;5053539;28;20175;-72
2023/09/05 09:16:53;;;;;;;2.75;2.10;;;22.20;66.40;;;;;;5052916;28;20179;-71
2023/09/05 09:19:18;;;;;;;3.20;2.45;;;22.20;66.40;;;;;;5053191;28;20199;-69
2023/09/05 09:21:47;;;;;;;2.40;2.20;;;22.20;67.30;;;;;;5060257;28;20214;-68
2023/09/05 09:24:15;;;;;;;3.55;1.83;;;22.20;66.40;;;;;;5054413;28;20185;-68
2023/09/05 09:26:41;;;;;;;2.40;2.20;;;22.20;66.40;;;;;;5054856;28;20183;-67
2023/09/05 09:29:07;;;;;;;2.33;2.00;;;22.30;67.30;;;;;;5058301;28;20687;-68
2023/09/05 09:31:33;;;;;;;2.70;1.80;;;22.30;66.40;;;;;;5072716;28;20170;-69
2023/09/05 09:33:59;;;;;;;2.78;1.88;;;22.30;66.40;;;;;;5071771;28;20267;-69
2023/09/05 09:36:31;;;;;;;2.28;2.08;;;22.30;66.40;;;;;;5073037;28;20170;-70
2023/09/05 09:38:57;;;;;;;2.55;2.05;;;22.30;66.30;;;;;;5055192;28;20221;-69
2023/09/05 09:41:23;;;;;;;2.50;2.30;;;22.30;66.30;;;;;;5053165;28;20172;-67
2023/09/05 09:43:54;;;;;;;2.53;1.80;;;22.30;66.10;;;;;;5052827;28;20559;-68
2023/09/05 09:46:19;;;;;;;3.55;2.00;;;22.40;66.20;;;;;;5052140;28;20171;-68
2023/09/05 09:48:45;;;;;;;3.83;2.20;;;22.40;66.10;;;;;;5052010;28;20301;-67
2023/09/05 09:51:12;;;;;;;3.25;1.92;;;22.40;66.00;;;;;;5050768;28;20591;-67
2023/09/05 09:53:39;;;;;;;2.60;1.80;;;22.40;66.00;;;;;;5051827;28;20214;-67
2023/09/05 09:56:12;;;;;;;2.17;1.98;;;22.40;65.90;;;;;;5069983;28;20699;-68
2023/09/05 09:58:42;;;;;;;2.35;2.10;;;22.50;65.90;;;;;;5070791;28;20230;-68
2023/09/05 10:01:11;;;;;;;2.28;2.08;;;22.50;65.90;;;;;;5072496;28;20711;-76
2023/09/05 10:03:41;;;;;;;2.72;1.88;;;22.50;65.80;;;;;;5072900;28;20589;-75
2023/09/05 10:06:07;;;;;;;3.20;2.22;;;22.50;65.70;;;;;;5071719;28;20174;-72
2023/09/05 10:08:33;;;;;;;3.42;1.90;;;22.60;65.80;;;;;;5072874;28;20174;-69
2023/09/05 10:10:59;;;;;;;2.33;2.13;;;22.60;65.70;;;;;;5072519;28;20273;-69
2023/09/05 10:13:27;;;;;;;3.50;2.10;;;22.60;65.60;;;;;;5071823;28;20210;-68
2023/09/05 10:15:54;;;;;;;3.40;2.30;;;22.70;65.60;;;;;;5072743;28;20177;-67
2023/09/05 10:18:20;;;;;;;3.40;2.15;;;22.60;65.50;;;;;;5072273;28;20182;-68
2023/09/05 10:20:46;;;;;;;2.00;1.85;;;22.60;65.50;;;;;;5070690;28;20253;-67
2023/09/05 10:23:12;;;;;;;3.05;2.28;;;22.60;65.50;;;;;;5071177;28;20186;-68
2023/09/05 10:25:37;;;;;;;3.63;2.00;;;22.60;65.40;;;;;;5071617;28;20174;-68
2023/09/05 10:28:04;;;;;;;2.22;1.90;;;22.70;65.40;;;;;;5070339;28;20672;-68
2023/09/05 10:30:29;;;;;;;3.45;2.33;;;22.70;65.30;;;;;;5032452;28;20238;-68
2023/09/05 10:32:56;;;;;;;1.80;1.70;;;22.70;65.20;;;;;;5032291;28;20591;-68
2023/09/05 10:35:22;;;;;;;2.00;1.80;;;22.70;65.20;;;;;;5030209;28;20179;-70
2023/09/05 10:38:03;;;;;;;3.53;2.22;;;22.80;65.30;;;;;;5032425;28;20634;-68
2023/09/05 10:40:32;;;;;;;2.20;2.10;;;22.80;65.30;;;;;;5031815;28;20183;-69
2023/09/05 10:42:58;;;;;;;2.25;1.80;;;22.80;65.20;;;;;;5032559;28;20198;-70
2023/09/05 10:45:23;;;;;;;2.58;1.77;;;22.80;65.20;;;;;;5030983;28;20698;-70
2023/09/05 10:47:50;;;;;;;2.65;2.00;;;22.80;65.20;;;;;;5031729;28;20172;-69
2023/09/05 10:50:19;;;;;;;2.20;2.00;;;22.80;65.20;;;;;;5032365;28;20172;-68
2023/09/05 10:52:51;;;;;;;2.10;1.90;;;22.80;65.10;;;;;;5032238;28;20572;-61
2023/09/05 10:55:29;;;;;;;2.40;2.10;;;22.80;65.30;;;;;;5031552;28;20183;-60
2023/09/05 10:57:54;;;;;;;3.80;1.90;;;22.80;65.40;;;;;;5032167;28;20175;-59
2023/09/05 11:00:20;;;;;;;3.20;1.90;;;22.80;65.60;;;;;;5032027;28;20188;-60
2023/09/05 11:02:46;;;;;;;2.33;2.05;;;22.70;65.60;;;;;;5031504;28;20187;-60
2023/09/05 11:05:12;;;;;;;1.70;1.60;;;22.70;65.50;;;;;;5032191;28;20180;-60
2023/09/05 11:07:42;;;;;;;2.45;2.20;;;22.70;65.60;;;;;;5032642;28;20657;-60
2023/09/05 11:10:24;;;;;;;3.05;1.90;;;22.70;65.60;;;;;;5035244;28;20172;-60
2023/09/05 11:12:49;;;;;;;3.92;2.00;;;22.70;65.60;;;;;;5035771;28;20595;-59
2023/09/05 11:15:28;;;;;;;5.03;2.38;;;22.70;66.60;;;;;;5035826;28;20263;-59
2023/09/05 11:18:04;;;;;;;4.20;1.80;;;22.70;65.70;;;;;;5035585;28;20219;-60
2023/09/05 11:20:50;;;;;;;2.88;1.98;;;22.60;65.70;;;;;;5036027;28;20230;-60
2023/09/05 11:23:21;;;;;;;4.80;2.15;;;22.70;65.90;;;;;;5034468;28;20192;-61
2023/09/05 11:25:50;;;;;;;2.25;2.03;;;22.60;66.80;;;;;;5035994;28;20225;-60
2023/09/05 11:28:16;;;;;;;2.80;2.15;;;22.60;66.00;;;;;;5038775;28;20175;-60
2023/09/05 11:30:43;;;;;;;2.15;1.95;;;22.60;66.00;;;;;;5074917;28;20251;-61
2023/09/05 11:33:14;;;;;;;3.33;1.88;;;22.60;66.10;;;;;;5074037;28;20275;-60
2023/09/05 11:35:43;;;;;;;6.63;2.13;;;22.60;66.10;;;;;;5075488;28;20174;-61
2023/09/05 11:38:09;;;;;;;2.42;2.22;;;22.60;67.00;;;;;;5074658;28;20171;-62
2023/09/05 11:40:35;;;;;;;2.40;2.13;;;22.50;66.00;;;;;;5075251;28;20644;-61
2023/09/05 11:43:10;;;;;;;2.00;1.80;;;22.50;66.00;;;;;;5075014;28;20586;-61
2023/09/05 11:45:42;;;;;;;2.70;1.83;;;22.60;66.00;;;;;;5074706;28;20596;-60
2023/09/05 11:48:11;;;;;;;2.58;1.98;;;22.60;66.10;;;;;;5074872;28;20580;-60
2023/09/05 11:50:38;;;;;;;3.22;2.00;;;22.50;65.80;;;;;;5074235;28;20167;-59
2023/09/05 11:53:03;;;;;;;3.60;2.05;;;22.50;65.90;;;;;;5074369;28;20214;-60
2023/09/05 11:55:29;;;;;;;2.63;2.08;;;22.50;65.90;;;;;;5074120;28;20235;-60
2023/09/05 11:57:55;;;;;;;3.20;2.10;;;22.50;65.70;;;;;;5074274;28;20521;-59
2023/09/05 12:00:25;;;;;;;1.83;1.65;;;22.50;65.80;;;;;;5073784;28;20269;-60
2023/09/05 12:02:54;;;;;;;3.15;1.80;;;22.50;65.80;;;;;;5074998;28;20312;-59
2023/09/05 12:05:20;;;;;;;1.75;1.65;;;22.50;65.80;;;;;;5072860;28;20181;-60
2023/09/05 12:07:52;;;;;;;2.40;1.80;;;22.50;65.70;;;;;;5075079;28;20175;-60
2023/09/05 12:10:18;;;;;;;3.22;2.00;;;22.50;65.70;;;;;;5074528;28;20174;-60
2023/09/05 12:12:58;;;;;;;1.90;1.80;;;22.50;65.60;;;;;;5072837;28;20546;-59
2023/09/05 12:15:28;;;;;;;1.80;1.70;;;22.60;65.70;;;;;;5074545;28;20189;-60
2023/09/05 12:17:55;;;;;;;2.75;1.88;;;22.50;65.60;;;;;;5074906;28;20182;-60
2023/09/05 12:20:20;;;;;;;1.95;1.80;;;22.50;65.50;;;;;;5071640;28;20654;-61
2023/09/05 12:22:47;;;;;;;2.58;1.98;;;22.50;65.50;;;;;;5073593;28;20212;-60
2023/09/05 12:25:16;;;;;;;2.72;1.88;;;22.50;65.50;;;;;;5074130;28;20178;-60
2023/09/05 12:27:45;;;;;;;1.70;1.60;;;22.50;65.50;;;;;;5073756;28;20186;-59
2023/09/05 12:30:25;;;;;;;2.35;1.98;;;22.50;65.50;;;;;;5056510;28;20179;-59
2023/09/05 12:32:54;;;;;;;1.85;1.75;;;22.50;65.40;;;;;;5054239;28;20364;-60
2023/09/05 12:35:20;;;;;;;3.65;2.28;;;22.50;65.50;;;;;;5053995;28;20183;-60
2023/09/05 12:37:45;;;;;;;2.20;2.00;;;22.60;65.60;;;;;;5054239;28;20182;-60
2023/09/05 12:40:11;;;;;;;1.77;1.63;;;22.50;65.40;;;;;;5053085;28;20183;-60
2023/09/05 12:42:37;;;;;;;3.10;2.00;;;22.50;65.40;;;;;;5054375;28;20194;-60
2023/09/05 12:45:02;;;;;;;2.75;2.00;;;22.60;65.50;;;;;;5053879;28;20271;-60
2023/09/05 12:47:29;;;;;;;3.67;1.70;;;22.60;65.50;;;;;;5053314;28;20299;-60